createdAt,value
2019-05-25T00:02:03.747Z,31.13
2019-05-25T00:04:35.763Z,31.73
2019-05-25T00:07:07.769Z,34.90
2019-05-25T00:09:39.968Z,39.63
2019-05-25T00:12:11.926Z,41.10
2019-05-25T00:14:43.876Z,39.30
2019-05-25T00:17:15.851Z,33.10
2019-05-25T00:19:47.787Z,35.23
2019-05-25T00:22:20.499Z,30.77
2019-05-25T00:24:52.478Z,35.43
2019-05-25T00:27:24.451Z,34.33
2019-05-25T00:29:56.381Z,35.53
2019-05-25T00:32:28.381Z,47.53
2019-05-25T00:35:00.330Z,38.87
2019-05-25T00:37:32.295Z,36.27
2019-05-25T00:40:04.634Z,34.07
2019-05-25T00:42:36.608Z,31.97
2019-05-25T00:45:08.873Z,34.87
2019-05-25T00:47:41.207Z,32.13
2019-05-25T00:50:13.277Z,30.93
2019-05-25T00:52:45.273Z,28.73
2019-05-25T00:55:17.232Z,22.93
2019-05-25T00:57:49.182Z,25.40
2019-05-25T01:00:22.072Z,26.43
2019-05-25T01:02:54.043Z,29.67
2019-05-25T01:05:26.045Z,33.83
2019-05-25T01:07:58.025Z,27.83
2019-05-25T01:10:30.369Z,32.10
2019-05-25T01:13:02.344Z,31.47
2019-05-25T01:15:34.375Z,29.23
2019-05-25T01:18:06.461Z,29.00
2019-05-25T01:20:38.523Z,26.17
2019-05-25T01:23:10.593Z,26.93
2019-05-25T01:25:42.763Z,26.90
2019-05-25T01:28:14.791Z,28.93
2019-05-25T01:30:46.796Z,29.83
2019-05-25T01:33:18.875Z,34.43
2019-05-25T01:35:51.216Z,32.90
2019-05-25T01:38:23.192Z,32.40
2019-05-25T01:40:55.133Z,30.93
2019-05-25T01:43:27.097Z,32.07
2019-05-25T01:45:59.037Z,39.63
2019-05-25T01:48:31.154Z,44.50
2019-05-25T01:51:03.121Z,56.23
2019-05-25T01:53:35.122Z,51.67
2019-05-25T01:56:07.075Z,46.03
2019-05-25T01:58:39.237Z,35.37
2019-05-25T02:01:11.246Z,37.80
2019-05-25T02:03:43.193Z,35.93
2019-05-25T02:06:15.187Z,34.50
2019-05-25T02:08:47.197Z,39.07
2019-05-25T02:11:19.151Z,62.10
2019-05-25T02:13:51.195Z,61.17
2019-05-25T02:16:23.320Z,70.27
2019-05-25T02:18:55.351Z,77.87
2019-05-25T02:21:27.354Z,61.73
2019-05-25T02:23:59.305Z,56.50
2019-05-25T02:26:31.271Z,53.33
2019-05-25T02:29:03.443Z,47.23
2019-05-25T02:31:35.468Z,48.90
2019-05-25T02:34:07.459Z,39.13
2019-05-25T02:36:39.451Z,50.10
2019-05-25T02:39:11.404Z,85.57
2019-05-25T02:41:43.381Z,89.40
2019-05-25T02:44:15.339Z,77.73
2019-05-25T02:46:47.341Z,76.17
2019-05-25T02:49:19.328Z,82.90
2019-05-25T02:51:51.303Z,84.10
2019-05-25T02:54:23.291Z,72.57
2019-05-25T02:56:55.253Z,72.53
2019-05-25T02:59:27.200Z,67.70
2019-05-25T03:01:59.178Z,66.67
2019-05-25T03:04:31.256Z,68.07
2019-05-25T03:07:04.847Z,55.33
2019-05-25T03:09:37.706Z,52.77
2019-05-25T03:12:10.153Z,50.23
2019-05-25T03:14:42.135Z,52.87
2019-05-25T03:17:14.102Z,51.10
2019-05-25T03:19:46.088Z,48.80
2019-05-25T03:22:18.034Z,68.70
2019-05-25T03:24:50.000Z,68.13
2019-05-25T03:27:22.089Z,67.10
2019-05-25T03:29:54.095Z,66.97
2019-05-25T03:32:26.075Z,59.37
2019-05-25T03:34:58.497Z,67.50
2019-05-25T03:37:30.514Z,66.03
2019-05-25T03:40:02.493Z,64.47
2019-05-25T03:42:34.439Z,60.30
2019-05-25T03:45:07.230Z,54.73
2019-05-25T03:47:39.181Z,56.17
2019-05-25T03:50:11.257Z,57.83
2019-05-25T03:52:43.239Z,59.83
2019-05-25T03:55:15.515Z,55.67
2019-05-25T03:57:47.525Z,56.00
2019-05-25T04:00:33.573Z,54.97
2019-05-25T04:03:05.970Z,49.00
2019-05-25T04:05:37.938Z,59.47
2019-05-25T04:08:10.057Z,55.83
2019-05-25T04:10:42.038Z,51.33
2019-05-25T04:13:14.017Z,50.23
2019-05-25T04:15:46.018Z,56.13
2019-05-25T04:18:18.163Z,54.50
2019-05-25T04:20:50.454Z,53.03
2019-05-25T04:23:22.435Z,53.17
2019-05-25T04:25:54.382Z,52.73
2019-05-25T04:28:26.380Z,53.83
2019-05-25T04:30:58.442Z,55.37
2019-05-25T04:33:30.778Z,61.27
2019-05-25T04:36:02.747Z,53.07
2019-05-25T04:38:34.748Z,49.83
2019-05-25T04:41:06.722Z,57.20
2019-05-25T04:43:38.697Z,53.47
2019-05-25T04:46:10.667Z,44.83
2019-05-25T04:48:42.732Z,43.77
2019-05-25T04:51:14.724Z,41.87
2019-05-25T04:53:46.804Z,41.60
2019-05-25T04:56:18.777Z,33.97
2019-05-25T04:58:50.746Z,33.70
2019-05-25T05:01:22.832Z,33.50
2019-05-25T05:03:54.804Z,34.73
2019-05-25T05:06:26.745Z,32.43
2019-05-25T05:08:58.783Z,33.57
2019-05-25T05:11:31.122Z,31.47
2019-05-25T05:14:03.129Z,32.83
2019-05-25T05:16:35.083Z,31.77
2019-05-25T05:19:07.177Z,30.77
2019-05-25T05:21:39.195Z,27.85
2019-05-25T05:24:11.183Z,28.83
2019-05-25T05:26:55.400Z,25.95
2019-05-25T05:29:16.873Z,23.38
2019-05-25T05:31:48.913Z,25.10
2019-05-25T05:34:20.905Z,22.82
2019-05-25T05:36:53.559Z,25.70
2019-05-25T05:39:26.037Z,20.82
2019-05-25T05:41:59.759Z,18.73
2019-05-25T05:44:33.467Z,17.85
2019-05-25T05:47:10.441Z,19.98
2019-05-25T05:49:41.911Z,19.35
2019-05-25T05:52:17.996Z,19.00
2019-05-25T05:54:51.797Z,17.75
2019-05-25T05:57:23.796Z,15.40
2019-05-25T05:59:55.798Z,15.88
2019-05-25T06:02:27.901Z,16.50
2019-05-25T06:04:59.940Z,20.77
2019-05-25T06:07:31.965Z,19.05
2019-05-25T06:10:04.145Z,14.78
2019-05-25T06:12:36.191Z,16.40
2019-05-25T06:15:08.607Z,20.08
2019-05-25T06:17:40.870Z,17.57
2019-05-25T06:20:13.252Z,18.27
2019-05-25T06:22:45.229Z,14.30
2019-05-25T06:25:17.898Z,14.53
2019-05-25T06:27:50.256Z,15.45
2019-05-25T06:30:23.388Z,14.98
2019-05-25T06:32:55.524Z,18.23
2019-05-25T06:35:27.600Z,30.08
2019-05-25T06:37:59.688Z,28.47
2019-05-25T06:40:31.733Z,18.15
2019-05-25T06:43:03.707Z,17.42
2019-05-25T06:45:35.741Z,18.10
2019-05-25T06:48:07.675Z,13.15
2019-05-25T06:50:39.704Z,19.25
2019-05-25T06:53:11.811Z,13.00
2019-05-25T06:55:44.450Z,12.90
2019-05-25T06:58:16.576Z,14.13
2019-05-25T07:00:48.521Z,10.68
2019-05-25T07:03:20.788Z,13.45
2019-05-25T07:05:52.761Z,13.68
2019-05-25T07:08:24.715Z,11.45
2019-05-25T07:10:56.679Z,12.75
2019-05-25T07:13:28.788Z,12.82
2019-05-25T07:16:01.255Z,10.05
2019-05-25T07:18:35.411Z,11.12
2019-05-25T07:21:07.042Z,12.45
2019-05-25T07:23:39.226Z,9.63
2019-05-25T07:26:11.269Z,10.15
2019-05-25T07:28:43.525Z,14.07
2019-05-25T07:31:15.484Z,9.50
2019-05-25T07:33:47.474Z,9.15
2019-05-25T07:36:19.400Z,9.78
2019-05-25T07:38:51.381Z,6.72
2019-05-25T07:41:23.699Z,8.68
2019-05-25T11:35:55.327Z,0.20
2019-05-25T11:38:27.332Z,0.10
2019-05-25T11:41:01.504Z,0.10
2019-05-25T11:43:33.504Z,0.10
2019-05-25T11:46:05.478Z,0.10
2019-05-25T11:48:37.500Z,0.00
2019-05-25T11:51:09.513Z,0.10
2019-05-25T11:53:41.658Z,0.10
2019-05-25T11:56:13.644Z,0.10
2019-05-25T11:58:47.691Z,0.23
2019-05-25T12:01:19.541Z,0.20
2019-05-25T12:03:51.517Z,0.40
2019-05-25T12:06:23.479Z,0.55
2019-05-25T12:08:55.715Z,0.75
2019-05-25T12:11:27.727Z,1.12
2019-05-25T12:13:59.663Z,1.17
2019-05-25T12:16:31.612Z,1.35
2019-05-25T12:19:03.602Z,1.60
2019-05-25T12:21:35.573Z,2.75
2019-05-25T12:24:07.586Z,1.70
2019-05-25T12:26:39.763Z,2.90
2019-05-25T12:29:11.759Z,3.98
2019-05-25T12:31:43.737Z,3.20
2019-05-25T12:34:15.692Z,2.50
2019-05-25T12:36:47.881Z,3.20
2019-05-25T12:39:20.331Z,3.67
2019-05-25T12:41:52.274Z,5.50
2019-05-25T12:44:24.264Z,3.52
2019-05-25T12:46:56.255Z,3.52
2019-05-25T12:49:28.269Z,3.77
2019-05-25T12:52:00.364Z,3.00
2019-05-25T12:54:32.431Z,3.98
2019-05-25T12:57:04.423Z,3.80
2019-05-25T12:59:36.409Z,3.55
2019-05-25T13:02:08.359Z,4.35
2019-05-25T13:04:40.769Z,2.85
2019-05-25T13:07:12.786Z,3.52
2019-05-25T13:09:44.733Z,3.72
2019-05-25T13:12:16.671Z,3.25
2019-05-25T13:14:48.723Z,5.67
2019-05-25T13:17:20.966Z,3.45
2019-05-25T13:19:53.003Z,5.95
2019-05-25T13:22:24.952Z,6.08
2019-05-25T13:24:56.948Z,4.17
2019-05-25T13:27:29.100Z,4.58
2019-05-25T13:30:03.292Z,3.80
2019-05-25T13:32:34.793Z,3.27
2019-05-25T13:35:07.194Z,4.00
2019-05-25T13:37:39.162Z,4.15
2019-05-25T13:40:11.613Z,4.10
2019-05-25T13:42:43.594Z,4.58
2019-05-25T13:45:16.189Z,6.55
2019-05-25T13:47:48.307Z,7.35
2019-05-25T13:50:21.093Z,5.33
2019-05-25T13:52:53.020Z,5.20
2019-05-25T13:55:24.952Z,4.95
2019-05-25T13:57:56.895Z,5.83
2019-05-25T14:00:29.001Z,5.53
2019-05-25T14:03:01.274Z,5.00
2019-05-25T14:05:33.233Z,4.97
2019-05-25T14:08:05.334Z,4.40
2019-05-25T14:10:37.289Z,4.08
2019-05-25T14:13:09.301Z,4.28
2019-05-25T14:15:41.381Z,4.30
2019-05-25T14:18:13.356Z,5.30
2019-05-25T14:20:45.320Z,3.85
2019-05-25T14:23:17.266Z,6.65
2019-05-25T14:25:49.222Z,4.53
2019-05-25T14:28:21.171Z,6.23
2019-05-25T14:30:53.127Z,4.50
2019-05-25T14:33:26.113Z,4.10
2019-05-25T14:35:58.049Z,4.33
2019-05-25T14:38:30.717Z,3.67
2019-05-25T14:41:02.686Z,4.20
2019-05-25T14:43:34.653Z,4.40
2019-05-25T14:46:06.809Z,2.87
2019-05-25T14:48:38.776Z,4.70
2019-05-25T14:51:11.114Z,6.33
2019-05-25T14:53:43.171Z,3.77
2019-05-25T14:56:15.142Z,4.47
2019-05-25T14:58:47.199Z,4.17
2019-05-25T15:01:19.200Z,3.23
2019-05-25T15:03:51.149Z,5.30
2019-05-25T15:06:23.129Z,4.83
2019-05-25T15:08:55.103Z,5.23
2019-05-25T15:11:27.170Z,5.80
2019-05-25T15:13:59.173Z,6.07
2019-05-25T15:16:32.351Z,6.20
2019-05-25T15:19:04.551Z,5.20
2019-05-25T15:21:37.770Z,5.00
2019-05-25T15:24:10.540Z,5.80
2019-05-25T15:26:42.606Z,3.77
2019-05-25T15:29:14.550Z,5.40
2019-05-25T15:31:46.847Z,4.27
2019-05-25T15:34:18.887Z,5.00
2019-05-25T15:36:51.081Z,4.10
2019-05-25T15:39:23.059Z,5.27
2019-05-25T15:41:55.027Z,4.83
2019-05-25T15:44:27.154Z,3.83
2019-05-25T15:46:59.170Z,5.80
2019-05-25T15:49:33.659Z,5.93
2019-05-25T15:52:06.307Z,7.93
2019-05-25T15:54:38.305Z,5.57
2019-05-25T15:57:10.514Z,6.83
2019-05-25T15:59:43.868Z,6.30
2019-05-25T16:02:15.805Z,6.50
2019-05-25T16:04:47.802Z,5.57
2019-05-25T16:07:19.806Z,4.93
2019-05-25T16:09:51.798Z,4.73
2019-05-25T16:12:23.788Z,5.13
2019-05-25T16:14:55.807Z,6.43
2019-05-25T16:17:27.878Z,8.13
2019-05-25T16:19:59.892Z,7.67
2019-05-25T16:22:32.084Z,5.87
2019-05-25T16:25:04.040Z,6.73
2019-05-25T16:27:36.076Z,5.53
2019-05-25T16:30:08.735Z,4.87
2019-05-25T16:33:09.956Z,5.07
2019-05-25T16:35:14.635Z,6.77
2019-05-25T16:37:46.774Z,5.70
2019-05-25T16:40:19.781Z,5.63
2019-05-25T16:42:51.702Z,5.00
2019-05-25T16:45:23.647Z,7.33
2019-05-25T16:47:55.636Z,6.67
2019-05-25T16:50:27.575Z,8.27
2019-05-25T16:53:00.040Z,5.80
2019-05-25T16:55:32.176Z,7.90
2019-05-25T16:58:04.170Z,8.70
2019-05-25T17:00:36.152Z,7.23
2019-05-25T17:03:08.207Z,7.73
2019-05-25T17:05:40.251Z,10.80
2019-05-25T17:08:12.189Z,7.60
2019-05-25T17:10:44.277Z,7.13
2019-05-25T17:13:16.220Z,7.63
2019-05-25T17:15:48.219Z,5.67
2019-05-25T17:18:20.541Z,8.53
2019-05-25T17:20:52.626Z,8.37
2019-05-25T17:23:24.593Z,10.17
2019-05-25T17:25:56.683Z,10.70
2019-05-25T17:28:28.725Z,16.33
2019-05-25T17:31:01.080Z,11.47
2019-05-25T17:33:45.457Z,8.27
2019-05-25T17:36:07.289Z,7.83
2019-05-25T17:38:39.264Z,7.93
2019-05-25T17:41:11.327Z,9.07
2019-05-25T17:43:43.386Z,7.33
2019-05-25T17:46:15.457Z,9.23
2019-05-25T17:48:47.437Z,8.40
2019-05-25T17:51:19.480Z,9.20
2019-05-25T17:53:51.439Z,8.83
2019-05-25T17:56:23.389Z,9.10
2019-05-25T17:58:55.385Z,9.90
2019-05-25T18:01:27.371Z,22.47
2019-05-25T18:04:07.175Z,11.07
2019-05-25T18:06:33.611Z,11.33
2019-05-25T18:09:07.821Z,11.73
2019-05-25T18:11:40.304Z,13.70
2019-05-25T18:14:12.335Z,13.07
2019-05-25T18:16:44.290Z,10.67
2019-05-25T18:19:16.251Z,16.83
2019-05-25T18:21:48.257Z,15.37
2019-05-25T18:24:20.246Z,13.60
2019-05-25T18:26:52.288Z,11.50
2019-05-25T18:29:24.250Z,11.93
2019-05-25T18:31:56.247Z,13.83
2019-05-25T18:34:28.217Z,13.80
2019-05-25T18:37:00.231Z,14.07
2019-05-25T18:39:32.323Z,16.87
2019-05-25T18:42:04.520Z,20.33
2019-05-25T18:44:36.510Z,22.90
2019-05-25T18:47:08.637Z,22.03
2019-05-25T18:49:41.000Z,21.87
2019-05-25T18:52:13.078Z,20.93
2019-05-25T18:54:45.072Z,16.33
2019-05-25T18:57:17.042Z,17.13
2019-05-25T18:59:49.171Z,14.87
2019-05-25T19:02:21.130Z,16.43
2019-05-25T19:04:59.511Z,12.30
2019-05-25T19:07:26.779Z,12.97
2019-05-25T19:09:58.713Z,13.37
2019-05-25T19:12:30.698Z,13.27
2019-05-25T19:15:02.835Z,14.17
2019-05-25T19:17:35.015Z,14.43
2019-05-25T19:20:07.834Z,14.60
2019-05-25T19:22:40.126Z,12.17
2019-05-25T19:25:12.430Z,11.67
2019-05-25T19:27:44.419Z,12.70
2019-05-25T19:30:17.148Z,12.67
2019-05-25T19:32:49.135Z,14.73
2019-05-25T19:35:21.351Z,14.73
2019-05-25T19:37:53.337Z,15.70
2019-05-25T19:40:25.272Z,15.20
2019-05-25T19:42:57.287Z,14.30
2019-05-25T19:45:29.275Z,13.73
2019-05-25T19:48:01.195Z,15.20
2019-05-25T19:50:33.191Z,14.80
2019-05-25T19:53:05.239Z,18.30
2019-05-25T19:55:37.191Z,15.80
2019-05-25T19:58:09.193Z,16.97
2019-05-25T20:00:41.166Z,18.10
2019-05-25T20:03:13.112Z,16.67
2019-05-25T20:05:45.292Z,16.83
2019-05-25T20:08:17.245Z,17.67
2019-05-25T20:10:49.449Z,16.23
2019-05-25T20:13:21.415Z,18.10
2019-05-25T20:15:53.431Z,19.03
2019-05-25T20:18:25.573Z,23.07
2019-05-25T20:20:57.891Z,19.60
2019-05-25T20:23:30.246Z,18.13
2019-05-25T20:26:02.254Z,19.00
2019-05-25T20:28:34.202Z,20.87
2019-05-25T20:31:06.185Z,20.03
2019-05-25T20:33:38.177Z,20.90
2019-05-25T20:36:10.153Z,21.30
2019-05-25T20:38:42.267Z,22.70
2019-05-25T20:41:14.235Z,23.80
2019-05-25T20:43:46.216Z,19.17
2019-05-25T20:46:18.153Z,19.17
2019-05-25T20:48:50.665Z,19.83
2019-05-25T20:51:22.611Z,21.07
2019-05-25T20:53:54.672Z,22.33
2019-05-25T20:56:26.611Z,24.20
2019-05-25T20:58:58.642Z,20.93
2019-05-25T21:01:30.583Z,22.83
2019-05-25T21:04:02.799Z,24.40
2019-05-25T21:06:34.783Z,20.87
2019-05-25T21:09:08.827Z,23.83
2019-05-25T21:11:41.114Z,24.00
2019-05-25T21:14:13.129Z,28.53
2019-05-25T21:16:45.230Z,25.07
2019-05-25T21:19:17.181Z,25.00
2019-05-25T21:21:49.175Z,21.47
2019-05-25T21:24:21.259Z,23.37
2019-05-25T21:26:53.241Z,24.20
2019-05-25T21:29:25.275Z,26.10
2019-05-25T21:31:57.456Z,26.10
2019-05-25T21:34:30.248Z,22.77
2019-05-25T21:37:02.220Z,31.23
2019-05-25T21:39:34.202Z,25.67
2019-05-25T21:42:06.242Z,29.50
2019-05-25T21:44:38.233Z,28.53
2019-05-25T21:47:10.314Z,32.23
2019-05-25T21:49:42.243Z,28.27
2019-05-25T21:52:14.202Z,30.27
2019-05-25T21:54:46.154Z,32.60
2019-05-25T21:57:18.137Z,29.70
2019-05-25T21:59:50.111Z,30.30
2019-05-25T22:02:22.110Z,33.37
2019-05-25T22:04:54.371Z,34.07
2019-05-25T22:07:26.439Z,33.70
2019-05-25T22:09:58.379Z,33.27
2019-05-25T22:12:30.359Z,31.27
2019-05-25T22:15:05.131Z,30.60
2019-05-25T22:17:35.935Z,36.73
2019-05-25T22:20:08.271Z,28.70
2019-05-25T22:22:41.829Z,34.87
2019-05-25T22:25:13.991Z,26.57
2019-05-25T22:27:46.025Z,28.77
2019-05-25T22:30:18.902Z,34.20
2019-05-25T22:32:51.364Z,30.50
2019-05-25T22:35:23.387Z,29.63
2019-05-25T22:37:56.515Z,27.47
2019-05-25T22:40:28.630Z,30.33
2019-05-25T22:43:00.595Z,27.67
2019-05-25T22:45:32.595Z,26.77
2019-05-25T22:48:04.640Z,26.10
2019-05-25T22:50:36.641Z,25.10
2019-05-25T22:53:08.794Z,24.37
2019-05-25T22:55:41.015Z,27.70
2019-05-25T22:58:13.042Z,29.90
2019-05-25T23:00:45.061Z,26.97
2019-05-25T23:03:17.103Z,26.73
2019-05-25T23:05:49.185Z,27.47
2019-05-25T23:08:21.306Z,23.03
2019-05-25T23:10:53.289Z,24.77
2019-05-25T23:13:25.231Z,28.57
2019-05-25T23:15:57.187Z,24.80
2019-05-25T23:18:29.133Z,25.70
2019-05-25T23:21:01.156Z,24.03
2019-05-25T23:23:33.205Z,23.13
2019-05-25T23:26:05.208Z,25.67
2019-05-25T23:28:37.149Z,25.67
2019-05-25T23:31:09.108Z,23.37
2019-05-25T23:33:41.173Z,26.40
2019-05-25T23:36:13.171Z,25.73
2019-05-25T23:38:46.965Z,24.07
2019-05-25T23:41:18.990Z,25.47
2019-05-25T23:43:51.227Z,25.73
2019-05-25T23:46:23.225Z,27.40
2019-05-25T23:48:55.205Z,21.90
2019-05-25T23:51:27.164Z,23.13
2019-05-25T23:54:00.227Z,24.87
2019-05-25T23:56:33.223Z,23.40
2019-05-25T23:59:05.304Z,23.83
